Time;durP1;ratioP1;P1;durP2;ratioP2;P2;SDS_P1;SDS_P2;PMS_P1;PMS_P2;Temp;Humidity;BMP_temperature;BMP_pressure;BME280_temperature;BME280_humidity;BME280_pressure;Samples;Min_cycle;Max_cycle;Signal;HPM_P1;HPM_P2
2022/07/10 00:02:08;;;;;;;33.47;31.60;;;;;;;17.30;97.40;97351.69;5074234;28;20213;-64
2022/07/10 00:04:33;;;;;;;39.40;37.27;;;;;;;17.35;97.63;97355.19;5056414;28;20208;-64
2022/07/10 00:07:01;;;;;;;96.80;91.63;;;;;;;17.43;95.09;97360.03;5075093;28;20208;-64
2022/07/10 00:09:28;;;;;;;76.10;72.07;;;;;;;17.60;94.12;97359.88;5075219;28;20231;-64
2022/07/10 00:11:53;;;;;;;65.13;61.47;;;;;;;17.45;95.32;97359.75;5074840;28;20544;-63
2022/07/10 00:14:20;;;;;;;62.97;59.33;;;;;;;17.40;96.71;97360.50;5074703;28;20218;-64
2022/07/10 00:16:46;;;;;;;63.97;60.50;;;;;;;17.37;95.64;97346.97;5074576;28;20237;-64
2022/07/10 00:19:11;;;;;;;60.60;57.27;;;;;;;17.37;94.06;97350.44;5073846;28;20230;-64
2022/07/10 00:21:37;;;;;;;72.43;68.40;;;;;;;17.31;94.29;97338.22;5074766;28;20201;-64
2022/07/10 00:24:02;;;;;;;100.00;94.53;;;;;;;17.11;94.92;97334.63;5073780;28;20173;-64
2022/07/10 00:26:28;;;;;;;111.77;105.73;;;;;;;17.25;94.27;97344.53;5074500;28;20644;-64
2022/07/10 00:28:54;;;;;;;76.47;72.37;;;;;;;17.00;93.60;97344.31;5074008;28;20289;-64
2022/07/10 00:31:20;;;;;;;92.37;87.20;;;;;;;17.16;92.65;97337.31;5073999;28;20197;-64
2022/07/10 00:33:46;;;;;;;115.57;108.93;;;;;;;17.31;92.71;97338.22;5073895;28;20184;-64
2022/07/10 00:36:11;;;;;;;68.67;64.90;;;;;;;17.10;91.60;97343.63;5074055;28;20642;-64
2022/07/10 00:38:37;;;;;;;73.10;69.13;;;;;;;17.10;92.58;97346.28;5074207;28;20336;-64
2022/07/10 00:41:02;;;;;;;82.23;77.63;;;;;;;17.18;91.59;97337.84;5072561;28;20239;-64
2022/07/10 00:43:28;;;;;;;72.77;68.50;;;;;;;17.16;90.91;97339.97;5071023;28;20228;-64
2022/07/10 00:45:53;;;;;;;70.73;66.93;;;;;;;17.21;91.22;97345.28;5073383;28;20263;-64
2022/07/10 00:48:19;;;;;;;71.97;67.87;;;;;;;17.21;90.90;97347.94;5073725;28;20227;-64
2022/07/10 00:50:46;;;;;;;83.17;78.70;;;;;;;17.18;91.24;97341.28;5074058;28;20180;-64
2022/07/10 00:53:14;;;;;;;74.17;70.17;;;;;;;17.01;92.29;97338.78;5073656;28;20275;-64
2022/07/10 00:55:41;;;;;;;89.60;84.77;;;;;;;17.05;92.28;97341.75;5073475;28;20616;-64
2022/07/10 00:58:10;;;;;;;116.70;110.40;;;;;;;17.05;92.56;97334.56;5055068;28;20165;-64
2022/07/10 01:00:39;;;;;;;126.50;119.67;;;;;;;17.08;92.25;97333.28;5073641;28;20193;-64
2022/07/10 01:03:05;;;;;;;115.53;109.40;;;;;;;16.95;93.11;97325.75;5072542;28;20209;-64
2022/07/10 01:05:31;;;;;;;66.73;63.07;;;;;;;16.94;93.57;97330.25;5073683;28;20177;-64
2022/07/10 01:07:56;;;;;;;53.33;50.40;;;;;;;17.12;92.97;97326.41;5072895;28;20674;-64
2022/07/10 01:10:22;;;;;;;64.17;60.47;;;;;;;17.04;93.07;97319.75;5073339;28;20199;-64
2022/07/10 01:12:48;;;;;;;61.20;57.80;;;;;;;16.77;94.39;97319.00;5073380;28;20241;-64
2022/07/10 01:15:13;;;;;;;61.67;58.27;;;;;;;16.72;95.11;97318.19;5073528;28;20522;-64
2022/07/10 01:17:39;;;;;;;57.70;54.50;;;;;;;16.69;94.55;97319.47;5072899;28;20615;-64
2022/07/10 01:20:08;;;;;;;52.33;49.50;;;;;;;16.68;94.31;97314.41;5067992;28;20173;-65
2022/07/10 01:22:36;;;;;;;43.30;40.77;;;;;;;16.63;94.99;97315.97;5072586;28;20209;-65
2022/07/10 01:25:02;;;;;;;67.63;63.83;;;;;;;16.81;93.92;97322.75;5072365;28;20664;-65
2022/07/10 01:27:29;;;;;;;56.57;53.27;;;;;;;16.58;95.40;97317.75;5072959;28;20264;-65
2022/07/10 01:29:54;;;;;;;52.17;49.10;;;;;;;16.63;94.55;97320.47;5073098;28;20173;-64
2022/07/10 01:32:19;;;;;;;37.13;35.10;;;;;;;16.60;95.07;97315.69;5072818;28;20258;-65
2022/07/10 01:34:46;;;;;;;31.77;30.03;;;;;;;16.49;95.46;97314.78;5072753;28;20193;-65
2022/07/10 01:37:12;;;;;;;33.67;31.73;;;;;;;16.56;95.50;97312.69;5056853;28;20539;-65
2022/07/10 01:39:38;;;;;;;36.53;34.47;;;;;;;16.40;96.59;97313.63;5073105;28;20246;-65
2022/07/10 01:42:04;;;;;;;33.63;31.63;;;;;;;16.42;96.24;97311.53;5072885;28;20197;-64
2022/07/10 01:44:29;;;;;;;32.07;30.20;;;;;;;16.32;96.86;97311.44;5070280;28;20701;-64
2022/07/10 01:46:54;;;;;;;28.13;26.53;;;;;;;16.54;95.90;97304.22;5072813;28;20622;-64
2022/07/10 01:49:20;;;;;;;25.43;24.00;;;;;;;16.41;96.17;97309.13;5072861;28;20569;-64
2022/07/10 01:51:45;;;;;;;25.07;23.50;;;;;;;16.23;97.92;97302.31;5072590;28;20241;-64
2022/07/10 01:54:11;;;;;;;25.37;23.87;;;;;;;16.25;97.45;97302.88;5072221;28;20632;-65
2022/07/10 01:56:38;;;;;;;25.50;24.00;;;;;;;16.15;97.82;97316.00;5072665;28;20169;-64
2022/07/10 01:59:04;;;;;;;24.47;22.70;;;;;;;16.12;98.14;97317.31;5072444;28;20657;-64
2022/07/10 02:01:30;;;;;;;34.20;32.27;;;;;;;16.18;97.95;97316.31;5072106;28;20205;-64
2022/07/10 02:06:39;;;;;;;38.60;36.30;;;;;;;16.07;98.04;97311.97;5072622;28;20245;-64
2022/07/10 02:09:05;;;;;;;39.67;37.37;;;;;;;15.92;99.07;97311.81;5072259;28;20260;-64
2022/07/10 02:11:30;;;;;;;49.83;46.80;;;;;;;15.96;99.22;97310.25;5071532;28;20208;-65
2022/07/10 02:13:56;;;;;;;76.60;72.17;;;;;;;15.92;99.82;97314.44;5053984;28;20177;-64
2022/07/10 02:16:21;;;;;;;83.47;78.87;;;;;;;15.89;100.00;97317.56;5072013;28;20180;-64
2022/07/10 02:18:47;;;;;;;82.33;77.90;;;;;;;16.00;99.20;97316.63;5071401;28;20382;-65
2022/07/10 02:21:12;;;;;;;78.13;73.63;;;;;;;15.96;99.02;97306.81;5071975;28;20216;-65
2022/07/10 02:23:40;;;;;;;75.53;71.13;;;;;;;15.79;100.00;97301.59;5071428;28;20495;-65
2022/07/10 02:26:06;;;;;;;67.40;63.60;;;;;;;15.88;99.94;97308.06;5072076;28;20526;-65
2022/07/10 02:28:32;;;;;;;65.90;62.17;;;;;;;15.74;100.00;97309.47;5072350;28;20169;-65
2022/07/10 02:30:57;;;;;;;70.00;66.00;;;;;;;15.67;100.00;97308.84;5072294;28;20193;-65
2022/07/10 02:33:23;;;;;;;63.77;60.17;;;;;;;15.53;100.00;97321.63;5071406;28;20266;-65
2022/07/10 02:35:48;;;;;;;55.70;52.47;;;;;;;15.55;100.00;97324.03;5071638;28;20182;-65
2022/07/10 02:38:13;;;;;;;37.83;35.63;;;;;;;15.70;100.00;97321.56;5071782;28;20645;-65
2022/07/10 02:40:39;;;;;;;37.77;35.13;;;;;;;15.54;100.00;97323.22;5071826;28;20197;-65
2022/07/10 02:43:04;;;;;;;35.53;32.90;;;;;;;15.65;100.00;97329.44;5069883;28;20201;-65
2022/07/10 02:45:30;;;;;;;41.00;38.43;;;;;;;15.58;100.00;97331.47;5071382;28;20554;-64
2022/07/10 02:47:55;;;;;;;44.67;41.83;;;;;;;15.79;100.00;97335.94;5071395;28;20169;-65
2022/07/10 02:50:21;;;;;;;47.63;44.43;;;;;;;15.57;100.00;97335.94;5071646;28;20189;-65
2022/07/10 02:52:46;;;;;;;48.97;45.83;;;;;;;15.71;100.00;97339.03;5071710;28;20296;-63
2022/07/10 02:55:11;;;;;;;50.10;46.93;;;;;;;15.54;100.00;97340.94;5071812;28;20181;-64
2022/07/10 02:57:37;;;;;;;46.23;43.33;;;;;;;15.63;100.00;97334.97;5071725;28;20188;-64
2022/07/10 03:00:03;;;;;;;47.97;44.87;;;;;;;15.71;100.00;97346.97;5070633;28;20286;-65
2022/07/10 03:02:28;;;;;;;47.03;43.93;;;;;;;15.76;100.00;97341.75;5071131;28;20292;-64
2022/07/10 03:04:54;;;;;;;47.10;43.87;;;;;;;15.72;100.00;97336.13;5071576;28;20309;-65
2022/07/10 03:07:19;;;;;;;43.67;40.57;;;;;;;15.61;100.00;97342.34;5071124;28;20256;-64
2022/07/10 03:09:45;;;;;;;41.13;38.33;;;;;;;15.68;100.00;97336.88;5053682;28;20276;-64
2022/07/10 03:12:10;;;;;;;43.40;40.33;;;;;;;15.66;100.00;97345.03;5071108;28;20256;-64
2022/07/10 03:14:36;;;;;;;43.90;41.10;;;;;;;15.78;100.00;97337.00;5071406;28;20188;-64
2022/07/10 03:17:01;;;;;;;44.37;41.53;;;;;;;15.56;100.00;97341.47;5071362;28;20201;-64
2022/07/10 03:19:27;;;;;;;42.30;39.57;;;;;;;15.68;100.00;97340.31;5070521;28;20193;-64
2022/07/10 03:21:52;;;;;;;43.77;40.87;;;;;;;15.87;100.00;97340.81;5071204;28;20748;-64
2022/07/10 03:24:18;;;;;;;34.07;31.80;;;;;;;15.70;100.00;97342.72;5070726;28;20305;-64
2022/07/10 03:26:44;;;;;;;40.07;37.27;;;;;;;15.66;100.00;97341.63;5071376;28;20230;-64
2022/07/10 03:29:10;;;;;;;41.30;38.70;;;;;;;15.54;100.00;97343.56;5071672;28;20177;-64
2022/07/10 03:31:35;;;;;;;38.23;35.73;;;;;;;15.58;100.00;97339.38;5071358;28;20305;-64
2022/07/10 03:34:01;;;;;;;36.37;33.90;;;;;;;15.53;100.00;97348.06;5071035;28;20188;-64
2022/07/10 03:36:26;;;;;;;35.53;33.33;;;;;;;15.45;100.00;97348.44;5070994;28;20185;-64
2022/07/10 03:38:52;;;;;;;44.83;41.93;;;;;;;15.52;100.00;97346.44;5070835;28;20182;-64
2022/07/10 03:41:17;;;;;;;49.93;46.73;;;;;;;15.44;100.00;97346.00;5071011;28;20205;-64
2022/07/10 03:43:42;;;;;;;44.07;41.27;;;;;;;15.53;100.00;97344.59;5069198;28;20717;-64
2022/07/10 03:46:08;;;;;;;35.90;33.47;;;;;;;15.41;100.00;97339.41;5069799;28;20186;-64
2022/07/10 03:48:34;;;;;;;33.77;31.50;;;;;;;15.49;100.00;97338.97;5071200;28;20247;-64
2022/07/10 03:51:00;;;;;;;33.37;30.97;;;;;;;15.47;100.00;97335.78;5071026;28;20249;-64
2022/07/10 03:53:27;;;;;;;33.93;31.67;;;;;;;15.26;100.00;97332.06;5070921;28;20628;-64
2022/07/10 03:55:52;;;;;;;29.23;27.30;;;;;;;15.25;100.00;97337.59;5070810;28;20197;-64
2022/07/10 03:58:18;;;;;;;36.63;34.23;;;;;;;15.22;100.00;97330.13;5071222;28;20212;-63
2022/07/10 04:00:43;;;;;;;38.53;36.03;;;;;;;15.18;100.00;97331.66;5070654;28;20522;-64
2022/07/10 04:03:09;;;;;;;39.87;37.27;;;;;;;15.31;100.00;97332.13;5070210;28;20198;-64
2022/07/10 04:05:35;;;;;;;40.13;37.50;;;;;;;15.45;100.00;97334.41;5070281;28;20227;-64
2022/07/10 04:08:02;;;;;;;41.23;38.63;;;;;;;15.45;100.00;97329.94;5071328;28;20173;-64
2022/07/10 04:10:29;;;;;;;38.57;35.93;;;;;;;15.49;100.00;97340.84;5071332;28;20283;-65
2022/07/10 04:12:55;;;;;;;42.40;39.63;;;;;;;15.26;100.00;97339.19;5070730;28;20217;-64
2022/07/10 04:15:21;;;;;;;41.67;39.00;;;;;;;15.49;100.00;97333.69;5070318;28;20203;-64
2022/07/10 04:17:48;;;;;;;38.33;35.73;;;;;;;15.74;100.00;97328.75;5071169;28;20252;-64
2022/07/10 04:20:14;;;;;;;34.97;32.60;;;;;;;15.85;100.00;97329.69;5071564;28;20208;-64
2022/07/10 04:22:40;;;;;;;29.00;26.90;;;;;;;15.67;100.00;97338.72;5073119;28;20232;-64
2022/07/10 04:25:06;;;;;;;33.20;31.07;;;;;;;15.59;100.00;97335.72;5073697;28;20209;-64
2022/07/10 04:27:32;;;;;;;34.90;32.53;;;;;;;15.70;100.00;97337.44;5073608;28;20192;-66
2022/07/10 04:29:58;;;;;;;41.97;39.27;;;;;;;15.59;100.00;97336.50;5073545;28;20177;-63
2022/07/10 04:32:23;;;;;;;38.33;35.83;;;;;;;15.65;100.00;97343.47;5063642;28;20548;-64
2022/07/10 04:34:49;;;;;;;40.77;38.13;;;;;;;15.27;100.00;97344.22;5073699;28;20186;-65
2022/07/10 04:37:16;;;;;;;39.17;36.50;;;;;;;15.40;100.00;97343.06;5056190;28;20181;-64
2022/07/10 04:39:41;;;;;;;36.77;34.43;;;;;;;15.33;100.00;97345.88;5073551;28;20208;-64
2022/07/10 04:42:07;;;;;;;41.30;38.47;;;;;;;15.05;100.00;97347.81;5073878;28;20294;-64
2022/07/10 04:44:33;;;;;;;32.13;29.87;;;;;;;15.14;100.00;97338.47;5071537;28;20312;-64
2022/07/10 04:46:58;;;;;;;31.27;29.27;;;;;;;15.25;100.00;97345.50;5073854;28;20272;-63
2022/07/10 04:49:25;;;;;;;36.60;33.80;;;;;;;15.07;100.00;97348.41;5073888;28;20166;-65
2022/07/10 04:51:50;;;;;;;39.47;36.90;;;;;;;15.10;100.00;97342.66;5073455;28;20208;-64
2022/07/10 04:54:16;;;;;;;37.73;35.27;;;;;;;15.12;100.00;97338.72;5073555;28;20169;-65
2022/07/10 04:56:41;;;;;;;37.27;34.87;;;;;;;15.25;100.00;97342.88;5073421;28;20532;-66
2022/07/10 04:59:09;;;;;;;33.97;31.57;;;;;;;15.13;100.00;97347.44;5055545;28;20225;-64
2022/07/10 05:01:34;;;;;;;36.07;33.67;;;;;;;15.16;100.00;97346.94;5054462;28;20197;-64
2022/07/10 05:03:59;;;;;;;36.90;34.70;;;;;;;15.17;100.00;97352.00;5073044;28;20252;-65
2022/07/10 05:06:25;;;;;;;31.07;28.97;;;;;;;15.28;100.00;97347.66;5054869;28;20177;-65
2022/07/10 05:08:50;;;;;;;29.00;27.03;;;;;;;15.23;100.00;97352.88;5073745;28;20245;-64
2022/07/10 05:11:16;;;;;;;31.70;29.53;;;;;;;14.89;100.00;97354.72;5073512;28;20292;-65
2022/07/10 05:13:45;;;;;;;28.57;26.77;;;;;;;15.03;100.00;97355.19;5073368;28;20193;-65
2022/07/10 05:16:10;;;;;;;41.73;39.03;;;;;;;14.83;100.00;97359.09;5073898;28;20185;-63
2022/07/10 05:18:36;;;;;;;42.77;40.10;;;;;;;15.13;100.00;97358.81;5072406;28;20196;-65
2022/07/10 05:21:02;;;;;;;38.27;35.93;;;;;;;15.10;100.00;97359.25;5073558;28;20170;-64
2022/07/10 05:23:27;;;;;;;40.10;37.53;;;;;;;15.23;100.00;97364.22;5072461;28;20185;-65
2022/07/10 05:25:52;;;;;;;37.90;35.50;;;;;;;15.20;100.00;97358.63;5054710;28;20204;-65
2022/07/10 05:28:18;;;;;;;33.63;31.37;;;;;;;15.17;100.00;97369.66;5071720;28;20284;-64
2022/07/10 05:30:43;;;;;;;29.60;27.60;;;;;;;15.07;100.00;97375.59;5071959;28;20267;-64
2022/07/10 05:33:09;;;;;;;29.57;27.63;;;;;;;15.05;100.00;97374.22;5073022;28;20212;-64
2022/07/10 05:35:34;;;;;;;27.57;25.73;;;;;;;15.17;100.00;97372.31;5072171;28;20667;-64
2022/07/10 05:37:59;;;;;;;37.87;35.60;;;;;;;15.25;100.00;97378.00;5072392;28;20185;-65
2022/07/10 05:40:25;;;;;;;29.10;27.37;;;;;;;15.33;100.00;97374.94;5071967;28;20207;-65
2022/07/10 05:42:51;;;;;;;34.87;32.77;;;;;;;15.65;97.80;97377.81;5070975;28;20197;-65
2022/07/10 05:45:17;;;;;;;62.23;58.73;;;;;;;15.72;94.13;97377.63;5071507;28;20221;-65
2022/07/10 05:47:42;;;;;;;45.60;43.10;;;;;;;15.26;96.89;97369.03;5072282;28;20178;-65
2022/07/10 05:50:08;;;;;;;57.70;54.40;;;;;;;14.96;98.58;97372.00;5072077;28;20657;-65
2022/07/10 05:52:34;;;;;;;143.77;135.83;;;;;;;15.23;96.47;97384.56;5072001;28;20259;-65
2022/07/10 05:54:59;;;;;;;122.07;115.43;;;;;;;15.97;93.58;97380.59;5071600;28;20165;-66
2022/07/10 05:57:25;;;;;;;51.50;48.37;;;;;;;16.61;87.90;97380.78;5053652;28;20226;-65
2022/07/10 05:59:50;;;;;;;62.53;58.97;;;;;;;16.34;84.46;97386.03;5072012;28;20173;-64
2022/07/10 06:02:16;;;;;;;48.47;45.43;;;;;;;16.50;82.86;97392.28;5072478;28;20193;-64
2022/07/10 06:04:42;;;;;;;39.53;37.33;;;;;;;16.24;85.87;97393.88;5070728;28;20664;-64
2022/07/10 06:07:08;;;;;;;34.57;32.20;;;;;;;16.15;86.97;97396.16;5071630;28;20196;-64
2022/07/10 06:09:34;;;;;;;40.03;37.87;;;;;;;15.85;83.98;97401.06;5071461;28;20560;-65
2022/07/10 06:12:00;;;;;;;28.97;26.97;;;;;;;15.63;84.53;97402.88;5071869;28;20201;-63
2022/07/10 06:14:26;;;;;;;28.77;27.20;;;;;;;15.38;84.57;97395.34;5072102;28;20185;-63
2022/07/10 06:16:51;;;;;;;31.97;30.20;;;;;;;15.46;83.65;97394.94;5073603;28;20481;-63
2022/07/10 06:19:18;;;;;;;33.90;31.70;;;;;;;15.78;82.98;97393.31;5072667;28;20510;-64
2022/07/10 06:21:43;;;;;;;33.37;31.63;;;;;;;16.19;80.87;97391.16;5071531;28;20255;-63
2022/07/10 06:24:09;;;;;;;33.63;31.53;;;;;;;15.80;82.32;97393.06;5063919;28;20177;-63
2022/07/10 06:26:34;;;;;;;34.77;32.83;;;;;;;15.99;82.36;97396.22;5070437;28;20201;-63
2022/07/10 06:29:00;;;;;;;38.97;36.37;;;;;;;15.85;83.14;97394.97;5072334;28;20193;-62
2022/07/10 06:31:25;;;;;;;35.97;33.63;;;;;;;16.02;82.62;97401.00;5071979;28;20249;-62
2022/07/10 06:33:51;;;;;;;38.63;36.17;;;;;;;16.58;80.54;97399.78;5053680;28;20177;-62
2022/07/10 06:36:16;;;;;;;35.93;33.97;;;;;;;16.25;81.72;97400.75;5072100;28;20189;-66
2022/07/10 06:38:42;;;;;;;34.63;32.63;;;;;;;16.39;80.96;97401.97;5071826;28;20174;-66
2022/07/10 06:41:08;;;;;;;44.00;41.50;;;;;;;16.39;81.48;97404.63;5071591;28;20193;-63
2022/07/10 06:43:34;;;;;;;43.47;40.77;;;;;;;16.34;81.55;97401.91;5068556;28;20225;-64
2022/07/10 06:45:59;;;;;;;44.80;42.17;;;;;;;16.13;81.62;97410.66;5072005;28;20646;-64
2022/07/10 06:48:27;;;;;;;61.60;58.10;;;;;;;16.02;82.67;97415.03;5071374;28;20161;-65
2022/07/10 06:50:52;;;;;;;44.53;41.97;;;;;;;16.54;81.72;97411.94;5060315;28;20169;-64
2022/07/10 06:53:17;;;;;;;59.73;56.50;;;;;;;16.86;80.70;97410.16;5071689;28;20227;-65
2022/07/10 06:55:43;;;;;;;74.90;70.80;;;;;;;16.37;82.43;97408.56;5071649;28;20173;-63
2022/07/10 06:58:09;;;;;;;78.07;73.70;;;;;;;16.64;80.92;97409.41;5053301;28;20288;-63
2022/07/10 07:00:34;;;;;;;42.53;40.07;;;;;;;15.95;81.58;97418.88;5071563;28;20181;-62
2022/07/10 07:02:59;;;;;;;47.30;44.50;;;;;;;16.40;79.86;97414.16;5071696;28;20197;-62
2022/07/10 07:05:25;;;;;;;51.63;48.73;;;;;;;16.14;80.49;97420.22;5071225;28;20196;-62
2022/07/10 07:07:50;;;;;;;48.50;45.83;;;;;;;15.99;80.46;97420.03;5071802;28;20181;-62
2022/07/10 07:10:16;;;;;;;45.27;42.70;;;;;;;16.32;78.46;97416.47;5053554;28;20189;-61
2022/07/10 07:12:41;;;;;;;49.30;46.53;;;;;;;16.99;73.91;97411.63;5071353;28;20205;-63
2022/07/10 07:15:07;;;;;;;86.80;82.03;;;;;;;16.65;74.46;97418.97;5071424;28;20177;-63
2022/07/10 07:17:56;;;;;;;83.90;79.43;;;;;;;16.41;76.89;97422.91;5071814;28;20178;-62
2022/07/10 07:23:12;;;;;;;88.83;83.97;;;;;;;16.26;76.22;97418.25;5071292;28;20200;-62
2022/07/10 07:25:41;;;;;;;123.60;116.67;;;;;;;16.62;73.62;97424.75;5070937;28;20683;-62
2022/07/10 07:28:07;;;;;;;98.47;92.97;;;;;;;16.94;74.12;97430.09;5070733;28;20181;-62
2022/07/10 07:30:33;;;;;;;118.63;112.27;;;;;;;16.86;73.88;97423.41;5071229;28;20239;-62
2022/07/10 07:32:58;;;;;;;90.00;85.20;;;;;;;17.46;70.54;97431.06;5071250;28;20198;-60
2022/07/10 07:35:23;;;;;;;66.40;62.47;;;;;;;16.69;73.00;97435.13;5070264;28;20251;-62
2022/07/10 07:37:50;;;;;;;87.57;82.90;;;;;;;16.63;73.54;97440.38;5071384;28;20212;-63
2022/07/10 07:40:20;;;;;;;79.67;75.33;;;;;;;16.54;73.01;97435.75;5070669;28;20658;-63
2022/07/10 07:42:46;;;;;;;69.70;65.83;;;;;;;16.40;73.49;97448.56;5071125;28;20197;-60
2022/07/10 07:45:12;;;;;;;93.53;88.43;;;;;;;16.62;72.76;97425.53;5068824;28;20294;-62
2022/07/10 07:47:46;;;;;;;64.33;60.80;;;;;;;16.52;71.49;97445.78;5071165;28;20293;-62
2022/07/10 07:50:18;;;;;;;62.17;58.77;;;;;;;16.14;72.69;97444.00;5070421;28;20652;-63
2022/07/10 07:52:44;;;;;;;69.13;65.07;;;;;;;16.25;72.47;97440.44;5070930;28;20251;-62
2022/07/10 07:55:11;;;;;;;58.70;55.43;;;;;;;16.41;71.56;97450.16;5074888;28;20576;-61
2022/07/10 07:57:37;;;;;;;63.90;60.03;;;;;;;16.32;71.47;97451.66;5074893;28;20657;-62
2022/07/10 08:00:05;;;;;;;71.90;67.83;;;;;;;16.33;71.56;97439.22;5074694;28;20193;-59
2022/07/10 08:02:30;;;;;;;70.00;66.20;;;;;;;16.57;71.32;97436.06;5070595;28;20197;-62
2022/07/10 08:04:56;;;;;;;70.00;66.23;;;;;;;16.21;72.64;97432.22;5071687;28;20177;-63
2022/07/10 08:07:21;;;;;;;69.60;66.03;;;;;;;16.30;72.09;97435.22;5071727;28;20174;-64
2022/07/10 08:09:48;;;;;;;60.97;57.77;;;;;;;16.34;72.50;97441.59;5073479;28;20197;-63
2022/07/10 08:12:14;;;;;;;181.03;171.63;;;;;;;16.27;73.49;97437.56;5073574;28;20212;-62
2022/07/10 08:14:39;;;;;;;142.43;134.90;;;;;;;16.51;72.90;97433.59;5072548;28;20181;-64
2022/07/10 08:17:05;;;;;;;63.47;60.17;;;;;;;17.34;69.05;97432.28;5091820;28;20179;-58
2022/07/10 08:19:30;;;;;;;124.87;118.57;;;;;;;17.28;68.69;97430.63;5090250;28;20275;-58
2022/07/10 08:21:55;;;;;;;99.93;94.70;;;;;;;17.64;66.13;97424.59;5074254;28;20196;-59
2022/07/10 08:24:21;;;;;;;104.77;99.47;;;;;;;18.08;65.07;97418.97;5074081;28;20222;-59
2022/07/10 08:26:47;;;;;;;200.20;189.90;;;;;;;17.82;65.55;97418.88;5074057;28;20312;-55
2022/07/10 08:29:12;;;;;;;193.90;184.13;;;;;;;17.73;66.32;97416.94;5075263;28;20323;-57
2022/07/10 08:31:39;;;;;;;131.27;124.47;;;;;;;17.67;65.45;97421.41;5073819;28;20216;-57
2022/07/10 08:34:05;;;;;;;127.73;121.10;;;;;;;18.00;64.67;97414.97;5074041;28;20181;-53
2022/07/10 08:36:31;;;;;;;113.53;107.63;;;;;;;17.39;66.66;97417.22;5074198;28;20180;-59
2022/07/10 08:38:58;;;;;;;214.70;203.80;;;;;;;17.37;68.32;97414.03;5073911;28;20283;-57
2022/07/10 08:41:25;;;;;;;210.07;199.37;;;;;;;17.28;68.33;97426.13;5074087;28;20208;-59
2022/07/10 08:43:51;;;;;;;197.83;187.87;;;;;;;18.41;64.29;97404.50;5072150;28;20225;-58
2022/07/10 08:46:18;;;;;;;93.72;88.63;;;;;;;19.21;60.52;97406.53;5073881;28;20653;-57
2022/07/10 08:48:48;;;;;;;70.13;66.32;;;;;;;18.48;62.68;97408.53;5049408;28;20177;-59
2022/07/10 08:51:23;;;;;;;55.10;52.10;;;;;;;17.63;64.97;97415.03;5072500;28;20209;-59
2022/07/10 08:53:51;;;;;;;71.33;67.53;;;;;;;17.27;67.13;97402.56;5072698;28;20562;-58
2022/07/10 08:56:16;;;;;;;64.18;60.83;;;;;;;17.11;66.31;97408.81;5072646;28;20183;-58
2022/07/10 08:58:42;;;;;;;70.57;66.63;;;;;;;17.71;64.80;97409.25;5072630;28;20282;-60
2022/07/10 09:01:07;;;;;;;74.03;69.90;;;;;;;18.03;63.36;97405.69;5053953;28;20327;-59
2022/07/10 09:03:33;;;;;;;60.40;57.10;;;;;;;17.56;64.54;97416.25;5071733;28;20177;-61
2022/07/10 09:05:59;;;;;;;47.83;45.20;;;;;;;17.42;64.02;97415.91;5070589;28;20195;-59
2022/07/10 09:08:31;;;;;;;45.60;43.17;;;;;;;17.52;63.70;97415.97;5071700;28;20605;-60
2022/07/10 09:11:14;;;;;;;52.37;49.57;;;;;;;18.39;61.40;97420.69;5072374;28;20180;-57
2022/07/10 09:13:50;;;;;;;55.40;52.10;;;;;;;18.79;60.67;97411.25;5072467;28;20217;-59
2022/07/10 09:16:24;;;;;;;179.02;169.73;;;;;;;18.08;60.94;97416.34;5072561;28;20614;-59
2022/07/10 09:18:50;;;;;;;180.38;171.13;;;;;;;18.32;60.07;97425.47;5084712;28;20191;-58
2022/07/10 09:21:16;;;;;;;221.90;210.50;;;;;;;17.57;61.96;97418.66;5093139;28;20216;-59
2022/07/10 09:23:41;;;;;;;205.60;194.63;;;;;;;17.82;61.15;97423.38;5074316;28;20173;-60
2022/07/10 09:26:07;;;;;;;215.73;204.80;;;;;;;18.20;61.02;97419.56;5069837;28;20188;-59
2022/07/10 09:28:32;;;;;;;150.90;143.10;;;;;;;18.36;59.74;97431.03;5072224;28;20205;-60
2022/07/10 09:31:00;;;;;;;143.20;135.70;;;;;;;18.19;60.39;97432.03;5072938;28;20200;-57
2022/07/10 09:33:26;;;;;;;192.55;182.68;;;;;;;18.03;60.67;97432.22;5073205;28;20205;-60
2022/07/10 09:38:41;;;;;;;126.40;119.78;;;;;;;17.52;61.34;97421.28;5086497;28;20610;-60
2022/07/10 09:41:21;;;;;;;163.55;155.07;;;;;;;17.73;60.99;97428.34;5072497;28;20598;-60
2022/07/10 09:43:53;;;;;;;273.30;258.92;;;;;;;18.63;57.97;97429.03;5063562;28;20233;-61
2022/07/10 09:46:21;;;;;;;167.23;158.07;;;;;;;18.51;55.75;97429.22;5071344;28;20177;-61
2022/07/10 09:48:47;;;;;;;169.35;160.60;;;;;;;18.49;55.61;97419.94;5072207;28;20199;-61
2022/07/10 09:51:13;;;;;;;116.07;109.72;;;;;;;18.94;55.57;97416.63;5072366;28;20287;-61
2022/07/10 09:53:44;;;;;;;116.95;110.70;;;;;;;18.55;56.29;97417.06;5071889;28;20291;-61
2022/07/10 09:56:12;;;;;;;96.30;90.88;;;;;;;18.32;56.06;97420.16;5072805;28;20178;-61
2022/07/10 09:58:38;;;;;;;82.03;77.60;;;;;;;18.83;54.80;97423.78;5063439;28;20219;-61
2022/07/10 10:01:05;;;;;;;56.80;53.65;;;;;;;18.47;54.71;97430.00;5072540;28;20233;-61
2022/07/10 10:03:36;;;;;;;64.70;61.22;;;;;;;18.87;54.32;97424.84;5071934;28;20269;-60
2022/07/10 10:06:11;;;;;;;69.95;66.07;;;;;;;19.25;53.59;97428.03;5066811;28;20412;-61
2022/07/10 10:09:15;;;;;;;190.93;181.55;;;;;;;19.41;52.97;97430.44;5070699;28;20708;-60
2022/07/10 10:11:43;;;;;;;176.95;168.07;;;;;;;18.45;54.27;97424.16;5071318;28;20196;-58
2022/07/10 10:14:09;;;;;;;131.25;124.72;;;;;;;18.50;54.09;97413.59;5071719;28;20189;-60
2022/07/10 10:16:37;;;;;;;116.97;111.18;;;;;;;18.66;54.63;97421.34;5053435;28;20193;-61
2022/07/10 10:21:46;;;;;;;154.70;147.07;;;;;;;18.68;54.24;97413.91;5091634;28;20211;-58
2022/07/10 10:24:14;;;;;;;146.80;139.20;;;;;;;18.68;53.32;97416.56;5087586;28;20172;-59
2022/07/10 10:26:41;;;;;;;168.90;160.60;;;;;;;18.72;53.67;97411.53;5076746;28;20248;-59
2022/07/10 10:29:08;;;;;;;164.95;156.82;;;;;;;18.76;53.82;97409.94;5071672;28;20196;-58
2022/07/10 10:31:34;;;;;;;165.95;157.73;;;;;;;19.02;53.59;97414.22;5071205;28;20613;-58
2022/07/10 10:34:00;;;;;;;162.90;154.80;;;;;;;19.29;52.88;97400.66;5071029;28;20334;-58
2022/07/10 10:36:36;;;;;;;187.73;178.50;;;;;;;19.09;53.38;97401.47;5077673;28;20255;-60
2022/07/10 10:39:13;;;;;;;278.52;264.38;;;;;;;19.20;52.13;97409.44;5092283;28;20648;-58
2022/07/10 10:41:47;;;;;;;211.00;200.35;;;;;;;18.49;53.71;97411.97;5092611;28;20208;-59
2022/07/10 10:44:18;;;;;;;132.50;125.87;;;;;;;18.36;54.01;97402.66;5078672;28;20236;-59
2022/07/10 10:47:01;;;;;;;175.00;166.55;;;;;;;18.95;53.21;97389.75;5073043;28;20202;-59
2022/07/10 10:49:47;;;;;;;129.70;123.13;;;;;;;18.91;52.48;97386.06;5072519;28;20177;-60
2022/07/10 10:52:15;;;;;;;169.88;161.38;;;;;;;18.53;53.15;97397.13;5072362;28;20681;-60
2022/07/10 10:54:56;;;;;;;104.93;99.57;;;;;;;17.97;55.09;97398.78;5055238;28;20198;-55
2022/07/10 10:57:22;;;;;;;163.83;155.83;;;;;;;18.25;53.43;97395.72;5066063;28;20185;-60
2022/07/10 10:59:52;;;;;;;136.60;129.75;;;;;;;18.43;53.74;97397.09;5069077;28;20202;-59
2022/07/10 11:02:24;;;;;;;138.18;131.35;;;;;;;19.10;52.83;97395.09;5070646;28;20207;-60
2022/07/10 11:04:50;;;;;;;146.90;139.60;;;;;;;18.87;52.42;97394.81;5070799;28;20185;-60
2022/07/10 11:07:53;;;;;;;122.37;116.10;;;;;;;18.75;52.72;97388.94;5071178;28;20261;-60
2022/07/10 11:10:44;;;;;;;237.93;226.25;;;;;;;18.37;53.08;97382.22;5070094;28;20177;-59
2022/07/10 11:13:11;;;;;;;206.95;196.85;;;;;;;19.00;51.64;97381.78;5070872;28;20212;-59
2022/07/10 11:15:37;;;;;;;207.40;197.10;;;;;;;19.27;52.08;97378.88;5063040;28;20681;-59
2022/07/10 11:18:11;;;;;;;230.15;218.82;;;;;;;19.55;51.27;97396.16;5070732;28;20173;-60
2022/07/10 11:20:41;;;;;;;177.18;168.18;;;;;;;19.43;51.57;97398.28;5070607;28;20280;-60
2022/07/10 11:23:43;;;;;;;164.95;156.25;;;;;;;18.79;51.99;97397.97;5070550;28;20203;-61